createdAt,value
2018-02-12T00:01:47.128Z,9.03
2018-02-12T00:04:13.093Z,7.40
2018-02-12T00:06:39.117Z,8.97
2018-02-12T00:09:05.193Z,8.13
2018-02-12T00:11:31.301Z,8.07
2018-02-12T00:13:57.296Z,12.13
2018-02-12T00:16:23.580Z,11.70
2018-02-12T00:18:49.647Z,10.63
2018-02-12T00:21:15.647Z,10.30
2018-02-12T00:23:41.680Z,8.20
2018-02-12T00:26:07.656Z,8.30
2018-02-12T00:28:33.669Z,9.83
2018-02-12T00:30:59.682Z,15.00
2018-02-12T00:33:25.728Z,11.23
2018-02-12T00:35:51.729Z,11.07
2018-02-12T00:38:18.212Z,8.20
2018-02-12T00:40:44.202Z,12.40
2018-02-12T00:43:10.191Z,15.83
2018-02-12T00:45:36.236Z,6.77
2018-02-12T00:48:02.306Z,8.90
2018-02-12T00:50:28.319Z,10.20
2018-02-12T00:52:54.279Z,10.63
2018-02-12T00:55:20.328Z,11.40
2018-02-12T00:57:46.318Z,7.70
2018-02-12T01:00:12.641Z,9.90
2018-02-12T01:02:38.697Z,8.47
2018-02-12T01:05:04.708Z,6.90
2018-02-12T01:07:30.705Z,10.97
2018-02-12T01:09:56.716Z,9.20
2018-02-12T01:12:23.099Z,11.47
2018-02-12T01:14:49.166Z,10.17
2018-02-12T01:17:15.237Z,7.90
2018-02-12T01:19:41.336Z,12.70
2018-02-12T01:22:07.332Z,6.83
2018-02-12T01:24:33.372Z,11.53
2018-02-12T01:26:59.389Z,7.17
2018-02-12T01:29:25.392Z,8.83
2018-02-12T01:31:51.443Z,7.90
2018-02-12T01:34:17.433Z,8.30
2018-02-12T01:36:43.756Z,11.87
2018-02-12T01:39:09.780Z,8.13
2018-02-12T01:41:35.769Z,10.73
2018-02-12T01:44:01.805Z,9.80
2018-02-12T01:46:27.861Z,7.63
2018-02-12T01:48:53.893Z,11.50
2018-02-12T01:51:19.900Z,12.63
2018-02-12T01:53:45.935Z,10.07
2018-02-12T01:56:11.966Z,10.87
2018-02-12T01:58:38.287Z,9.47
2018-02-12T02:01:04.287Z,8.57
2018-02-12T02:03:30.329Z,12.00
2018-02-12T02:05:56.356Z,8.13
2018-02-12T02:08:22.339Z,10.33
2018-02-12T02:10:48.320Z,9.63
2018-02-12T02:13:14.293Z,7.47
2018-02-12T02:15:40.603Z,10.10
2018-02-12T02:18:06.599Z,8.90
2018-02-12T02:20:32.607Z,8.77
2018-02-12T02:22:58.617Z,18.90
2018-02-12T02:25:24.577Z,10.43
2018-02-12T02:27:50.568Z,11.60
2018-02-12T02:30:16.617Z,9.53
2018-02-12T02:32:42.614Z,8.53
2018-02-12T02:35:08.605Z,9.10
2018-02-12T02:37:34.932Z,7.63
2018-02-12T02:40:00.977Z,6.70
2018-02-12T02:42:27.106Z,7.67
2018-02-12T02:44:53.136Z,9.60
2018-02-12T02:47:19.102Z,7.80
2018-02-12T02:49:45.117Z,13.27
2018-02-12T02:52:11.197Z,9.07
2018-02-12T02:54:37.685Z,7.33
2018-02-12T02:57:03.758Z,8.93
2018-02-12T02:59:29.773Z,9.70
2018-02-12T03:01:55.870Z,9.50
2018-02-12T03:04:21.880Z,6.40
2018-02-12T03:06:47.965Z,9.80
2018-02-12T03:09:13.963Z,9.53
2018-02-12T03:11:40.352Z,9.10
2018-02-12T03:14:06.352Z,10.63
2018-02-12T03:16:32.340Z,12.17
2018-02-12T03:18:58.365Z,9.47
2018-02-12T03:21:24.346Z,8.10
2018-02-12T03:23:50.365Z,8.10
2018-02-12T03:26:16.356Z,11.63
2018-02-12T03:28:42.741Z,10.33
2018-02-12T03:31:08.809Z,9.17
2018-02-12T03:33:34.752Z,11.00
2018-02-12T03:36:00.760Z,6.80
2018-02-12T03:38:26.719Z,9.50
2018-02-12T03:40:53.068Z,10.67
2018-02-12T03:43:19.105Z,7.50
2018-02-12T03:46:00.042Z,9.10
2018-02-12T03:48:26.056Z,11.80
2018-02-12T03:50:52.122Z,7.23
2018-02-12T03:53:18.152Z,6.90
2018-02-12T03:55:44.162Z,13.73
2018-02-12T03:58:10.621Z,8.33
2018-02-12T04:00:36.674Z,7.53
2018-02-12T04:03:02.681Z,11.17
2018-02-12T04:05:28.686Z,11.60
2018-02-12T04:07:54.678Z,11.67
2018-02-12T04:10:20.713Z,13.77
2018-02-12T04:12:46.678Z,9.53
2018-02-12T04:15:12.720Z,9.00
2018-02-12T04:17:38.720Z,12.20
2018-02-12T04:20:04.752Z,18.23
2018-02-12T04:22:30.776Z,8.30
2018-02-12T04:24:56.772Z,7.70
2018-02-12T04:27:23.112Z,8.77
2018-02-12T04:29:49.125Z,12.53
2018-02-12T04:32:15.168Z,8.57
2018-02-12T04:34:41.172Z,6.30
2018-02-12T04:37:07.196Z,9.43
2018-02-12T04:39:33.221Z,4.87
2018-02-12T04:41:59.219Z,6.27
2018-02-12T04:44:25.617Z,11.77
2018-02-12T04:46:51.666Z,9.00
2018-02-12T04:49:17.641Z,8.63
2018-02-12T04:51:43.664Z,5.40
2018-02-12T04:54:09.657Z,5.10
2018-02-12T04:56:35.700Z,4.20
2018-02-12T04:59:01.717Z,3.57
2018-02-12T05:01:27.716Z,4.07
2018-02-12T05:03:53.697Z,3.60
2018-02-12T05:06:19.749Z,6.33
2018-02-12T05:08:45.773Z,3.57
2018-02-12T05:11:11.762Z,4.30
2018-02-12T05:13:37.784Z,5.80
2018-02-12T05:16:03.813Z,4.47
2018-02-12T05:18:30.143Z,7.30
2018-02-12T05:20:56.172Z,8.13
2018-02-12T05:23:22.170Z,5.30
2018-02-12T05:25:48.196Z,5.20
2018-02-12T05:28:14.204Z,3.17
2018-02-12T05:30:40.217Z,4.90
2018-02-12T05:33:06.250Z,6.23
2018-02-12T05:35:32.548Z,6.30
2018-02-12T05:37:58.506Z,3.37
2018-02-12T05:40:24.489Z,9.83
2018-02-12T05:42:50.529Z,5.03
2018-02-12T05:45:16.525Z,3.43
2018-02-12T05:47:42.558Z,4.00
2018-02-12T05:50:08.585Z,4.90
2018-02-12T05:52:34.932Z,4.03
2018-02-12T05:55:00.866Z,5.50
2018-02-12T05:57:26.945Z,2.90
2018-02-12T05:59:52.964Z,3.77
2018-02-12T06:02:18.985Z,5.30
2018-02-12T06:04:45.039Z,2.50
2018-02-12T06:07:11.048Z,4.07
2018-02-12T06:09:37.417Z,4.73
2018-02-12T06:12:03.441Z,4.10
2018-02-12T06:14:29.501Z,3.63
2018-02-12T06:16:55.485Z,3.63
2018-02-12T06:19:21.500Z,3.43
2018-02-12T06:21:47.581Z,3.10
2018-02-12T06:24:13.597Z,3.97
2018-02-12T06:26:39.589Z,9.83
2018-02-12T06:29:05.664Z,5.90
2018-02-12T06:31:31.672Z,3.50
2018-02-12T06:33:57.653Z,3.93
2018-02-12T06:36:23.624Z,5.93
2018-02-12T06:38:49.921Z,3.80
2018-02-12T06:41:15.937Z,3.37
2018-02-12T06:43:41.932Z,6.50
2018-02-12T06:46:07.924Z,3.17
2018-02-12T06:48:33.939Z,3.10
2018-02-12T06:51:00.275Z,4.43
2018-02-12T06:53:26.246Z,3.10
2018-02-12T06:55:52.263Z,8.00
2018-02-12T06:58:18.282Z,5.93
2018-02-12T07:00:44.272Z,6.50
2018-02-12T07:03:10.599Z,6.57
2018-02-12T07:05:36.586Z,3.83
2018-02-12T07:08:02.629Z,5.90
2018-02-12T07:10:28.613Z,7.40
2018-02-12T07:12:54.628Z,6.03
2018-02-12T07:15:20.655Z,4.70
2018-02-12T07:17:46.617Z,5.43
2018-02-12T07:20:12.971Z,4.80
2018-02-12T07:22:38.969Z,4.90
2018-02-12T07:25:04.978Z,4.30
2018-02-12T07:27:31.001Z,4.20
2018-02-12T07:29:57.009Z,5.63
2018-02-12T07:32:23.104Z,5.53
2018-02-12T07:34:49.090Z,4.33
2018-02-12T07:37:15.097Z,3.80
2018-02-12T07:39:41.056Z,10.03
2018-02-12T07:42:07.396Z,12.13
2018-02-12T07:44:33.568Z,6.50
2018-02-12T07:46:59.657Z,4.30
2018-02-12T07:49:25.652Z,7.23
2018-02-12T07:51:51.649Z,6.97
2018-02-12T07:54:17.645Z,6.70
2018-02-12T07:56:43.664Z,6.77
2018-02-12T07:59:09.688Z,10.37
2018-02-12T08:01:35.712Z,5.97
2018-02-12T08:04:02.147Z,5.93
2018-02-12T08:06:28.224Z,7.50
2018-02-12T08:08:54.361Z,16.83
2018-02-12T08:11:20.356Z,5.90
2018-02-12T08:13:46.360Z,9.17
2018-02-12T08:16:12.379Z,5.87
2018-02-12T08:18:38.396Z,7.60
2018-02-12T08:21:04.709Z,6.70
2018-02-12T08:23:30.615Z,6.43
2018-02-12T08:25:56.617Z,5.47
2018-02-12T08:28:22.662Z,7.30
2018-02-12T08:30:48.742Z,3.93
2018-02-12T08:33:14.789Z,7.00
2018-02-12T08:35:40.773Z,4.50
2018-02-12T08:38:06.803Z,9.30
2018-02-12T08:40:32.809Z,6.87
2018-02-12T08:42:59.156Z,5.50
2018-02-12T08:45:25.188Z,2.77
2018-02-12T08:47:51.244Z,6.57
2018-02-12T08:50:17.413Z,6.23
2018-02-12T08:52:43.412Z,7.00
2018-02-12T08:55:09.541Z,6.90
2018-02-12T08:57:35.498Z,4.20
2018-02-12T09:00:01.824Z,6.50
2018-02-12T09:02:27.836Z,10.90
2018-02-12T09:04:53.893Z,5.40
2018-02-12T09:07:19.960Z,8.03
2018-02-12T09:09:45.881Z,5.57
2018-02-12T09:12:12.172Z,5.33
2018-02-12T09:14:38.196Z,5.20
2018-02-12T09:17:04.193Z,7.83
2018-02-12T09:19:30.206Z,6.93
2018-02-12T09:21:56.213Z,5.40
2018-02-12T09:24:22.589Z,5.03
2018-02-12T09:26:48.593Z,6.13
2018-02-12T09:29:14.592Z,5.70
2018-02-12T09:31:40.589Z,6.50
2018-02-12T09:34:06.551Z,5.77
2018-02-12T09:36:32.891Z,9.30
2018-02-12T09:38:58.905Z,13.50
2018-02-12T09:41:24.904Z,2.70
2018-02-12T09:43:50.918Z,4.60
2018-02-12T09:46:17.229Z,5.40
2018-02-12T09:48:43.255Z,4.20
2018-02-12T09:51:09.265Z,4.60
2018-02-12T09:53:35.276Z,4.30
2018-02-12T09:56:01.345Z,4.40
2018-02-12T09:58:27.764Z,5.53
2018-02-12T10:00:53.776Z,5.33
2018-02-12T10:03:19.795Z,3.43
2018-02-12T10:05:45.825Z,3.30
2018-02-12T10:08:12.057Z,6.07
2018-02-12T10:10:38.077Z,4.63
2018-02-12T10:13:04.080Z,4.60
2018-02-12T10:15:30.360Z,3.80
2018-02-12T10:17:56.369Z,3.83
2018-02-12T10:20:22.353Z,4.40
2018-02-12T10:22:48.420Z,4.30
2018-02-12T10:25:14.394Z,5.00
2018-02-12T10:27:40.785Z,3.77
2018-02-12T10:30:06.793Z,3.60
2018-02-12T10:32:32.794Z,2.90
2018-02-12T10:34:58.873Z,5.97
2018-02-12T10:37:24.900Z,3.00
2018-02-12T10:39:51.242Z,4.10
2018-02-12T10:42:17.236Z,3.47
2018-02-12T10:44:43.220Z,3.40
2018-02-12T10:47:09.237Z,3.20
2018-02-12T10:49:35.236Z,3.00
2018-02-12T10:52:01.313Z,4.03
2018-02-12T10:54:27.301Z,3.20
2018-02-12T10:56:53.729Z,2.60
2018-02-12T10:59:19.712Z,3.60
2018-02-12T11:01:45.861Z,4.50
2018-02-12T11:04:11.959Z,3.47
2018-02-12T11:06:37.943Z,3.83
2018-02-12T11:09:03.941Z,3.57
2018-02-12T11:11:29.968Z,4.90
2018-02-12T11:13:55.984Z,9.23
2018-02-12T11:16:22.052Z,5.23
2018-02-12T11:18:48.392Z,7.00
2018-02-12T11:21:14.412Z,6.00
2018-02-12T11:23:40.387Z,5.67
2018-02-12T11:26:06.407Z,6.63
2018-02-12T11:28:32.411Z,3.57
2018-02-12T11:30:58.439Z,5.00
2018-02-12T11:33:24.459Z,4.70
2018-02-12T11:35:50.504Z,4.30
2018-02-12T11:38:16.521Z,7.63
2018-02-12T11:40:42.512Z,9.27
2018-02-12T11:43:08.840Z,6.33
2018-02-12T11:45:34.893Z,5.77
2018-02-12T11:48:00.909Z,6.70
2018-02-12T11:50:26.925Z,5.13
2018-02-12T11:52:52.910Z,3.23
2018-02-12T11:55:18.932Z,3.73
2018-02-12T11:57:44.996Z,3.33
2018-02-12T12:00:11.073Z,6.00
2018-02-12T12:02:37.158Z,5.57
2018-02-12T12:05:03.246Z,3.40
2018-02-12T12:07:29.680Z,3.77
2018-02-12T12:09:55.688Z,5.27
2018-02-12T12:12:21.698Z,3.33
2018-02-12T12:14:47.748Z,4.73
2018-02-12T12:17:13.748Z,10.70
2018-02-12T12:19:39.735Z,3.93
2018-02-12T12:22:05.725Z,5.97
2018-02-12T12:24:32.112Z,3.27
2018-02-12T12:26:58.160Z,7.70
2018-02-12T12:29:24.185Z,4.73
2018-02-12T12:31:50.168Z,4.77
2018-02-12T12:34:16.195Z,3.03
2018-02-12T12:36:42.223Z,4.83
2018-02-12T12:39:08.172Z,5.60
2018-02-12T12:41:34.208Z,5.60
2018-02-12T12:44:00.202Z,5.10
2018-02-12T12:46:26.680Z,4.03
2018-02-12T12:48:52.687Z,5.07
2018-02-12T12:51:18.667Z,5.40
2018-02-12T12:53:44.720Z,5.93
2018-02-12T12:56:10.763Z,6.37
2018-02-12T12:58:36.804Z,7.87
2018-02-12T13:01:02.816Z,7.53
2018-02-12T13:03:29.158Z,6.30
2018-02-12T13:05:55.222Z,6.13
2018-02-12T13:08:21.296Z,4.80
2018-02-12T13:10:47.289Z,4.27
2018-02-12T13:13:13.339Z,4.30
2018-02-12T13:15:39.328Z,4.30
2018-02-12T13:18:05.336Z,3.47
2018-02-12T13:20:31.720Z,5.20
2018-02-12T13:22:57.733Z,4.60
2018-02-12T13:25:23.724Z,5.10
2018-02-12T13:27:49.792Z,5.30
2018-02-12T13:30:15.847Z,5.93
2018-02-12T13:32:41.856Z,5.83
2018-02-12T13:35:07.901Z,5.90
2018-02-12T13:37:34.236Z,4.70
2018-02-12T13:40:00.239Z,5.20
2018-02-12T13:42:26.333Z,5.93
2018-02-12T13:44:52.301Z,5.20
2018-02-12T13:47:18.383Z,4.97
2018-02-12T13:49:44.420Z,6.10
2018-02-12T13:52:10.436Z,4.30
2018-02-12T13:54:36.471Z,3.83
2018-02-12T13:57:02.537Z,4.10
2018-02-12T13:59:28.493Z,4.67
2018-02-12T14:01:54.561Z,6.70
2018-02-12T14:04:20.582Z,4.60
2018-02-12T14:06:46.940Z,8.27
2018-02-12T14:09:12.934Z,5.00
2018-02-12T14:11:38.934Z,4.40
2018-02-12T14:14:04.960Z,3.37
2018-02-12T14:16:31.044Z,3.57
2018-02-12T14:18:57.111Z,3.97
2018-02-12T14:21:23.124Z,3.10
2018-02-12T14:23:49.471Z,3.10
2018-02-12T14:26:15.468Z,4.03
2018-02-12T14:28:41.548Z,5.90
2018-02-12T14:31:07.589Z,4.77
2018-02-12T14:33:33.584Z,7.27
2018-02-12T14:35:59.634Z,2.90
2018-02-12T14:38:25.681Z,4.40
2018-02-12T14:40:52.132Z,3.93
2018-02-12T14:43:18.144Z,22.17
2018-02-12T14:45:44.197Z,8.50
2018-02-12T14:48:10.190Z,8.10
2018-02-12T14:50:36.216Z,8.53
2018-02-12T14:53:02.264Z,6.10
2018-02-12T14:55:28.308Z,4.00
2018-02-12T14:57:54.325Z,10.23
2018-02-12T15:00:20.313Z,4.50
2018-02-12T15:02:46.652Z,5.47
2018-02-12T15:05:12.653Z,4.90
2018-02-12T15:07:38.673Z,4.17
2018-02-12T15:10:04.725Z,4.23
2018-02-12T15:12:30.724Z,3.77
2018-02-12T15:14:57.084Z,3.87
2018-02-12T15:17:23.164Z,4.23
2018-02-12T15:19:49.245Z,4.03
2018-02-12T15:22:15.332Z,6.27
2018-02-12T15:24:41.367Z,9.57
2018-02-12T15:27:07.728Z,36.10
2018-02-12T15:29:33.790Z,22.87
2018-02-12T15:31:59.794Z,26.93
2018-02-12T15:34:26.620Z,25.77
2018-02-12T15:36:52.609Z,19.53
2018-02-12T15:39:18.621Z,14.33
2018-02-12T15:41:44.624Z,10.53
2018-02-12T15:44:11.030Z,6.87
2018-02-12T15:46:37.044Z,5.37
2018-02-12T15:49:03.046Z,8.03
2018-02-12T15:51:29.088Z,5.60
2018-02-12T15:53:55.139Z,6.90
2018-02-12T15:56:21.568Z,4.77
2018-02-12T15:58:47.559Z,5.80
2018-02-12T16:01:13.561Z,4.83
2018-02-12T16:03:39.585Z,6.80
2018-02-12T16:06:05.577Z,5.03
2018-02-12T16:08:31.841Z,5.87
2018-02-12T16:10:57.875Z,4.67
2018-02-12T16:13:23.868Z,6.93
2018-02-12T16:15:49.877Z,7.33
2018-02-12T16:18:16.434Z,8.47
2018-02-12T16:20:42.413Z,4.00
2018-02-12T16:23:08.428Z,5.33
2018-02-12T16:25:34.437Z,5.37
2018-02-12T16:28:00.461Z,3.77
2018-02-12T16:30:26.497Z,5.17
2018-02-12T16:32:52.853Z,13.30
2018-02-12T16:35:18.860Z,20.13
2018-02-12T16:37:44.832Z,12.67
2018-02-12T16:40:10.864Z,5.63
2018-02-12T16:42:36.869Z,8.67
2018-02-12T16:45:03.957Z,9.73
2018-02-12T16:47:30.021Z,8.43
2018-02-12T16:49:56.026Z,13.70
2018-02-12T16:52:22.029Z,6.80
2018-02-12T16:54:48.309Z,5.87
2018-02-12T16:57:14.330Z,9.37
2018-02-12T16:59:40.301Z,7.63
2018-02-12T17:02:06.368Z,5.17
2018-02-12T17:04:32.395Z,4.73
2018-02-12T17:06:58.480Z,6.73
2018-02-12T17:09:24.504Z,8.63
2018-02-12T17:11:50.909Z,7.33
2018-02-12T17:14:16.925Z,13.10
2018-02-12T17:16:42.948Z,11.17
2018-02-12T17:19:09.008Z,11.27
2018-02-12T17:21:35.016Z,7.30
2018-02-12T17:24:01.337Z,8.10
2018-02-12T17:26:27.338Z,7.93
2018-02-12T17:28:53.357Z,6.17
2018-02-12T17:31:19.410Z,5.87
2018-02-12T17:33:45.392Z,5.97
2018-02-12T17:36:11.453Z,6.60
2018-02-12T17:38:37.394Z,7.00
2018-02-12T17:41:03.438Z,7.23
2018-02-12T17:43:29.524Z,7.83
2018-02-12T17:45:55.976Z,7.57
2018-02-12T17:48:22.001Z,6.70
2018-02-12T17:50:48.047Z,7.10
2018-02-12T17:53:14.105Z,15.77
2018-02-12T17:55:40.097Z,10.60
2018-02-12T17:58:06.102Z,22.03
2018-02-12T18:00:32.141Z,16.90
2018-02-12T18:02:58.453Z,13.43
2018-02-12T18:05:24.434Z,15.10
2018-02-12T18:07:50.397Z,7.80
2018-02-12T18:10:17.377Z,11.17
2018-02-12T18:12:43.411Z,15.47
2018-02-12T18:15:09.437Z,14.40
2018-02-12T18:17:35.443Z,11.30
2018-02-12T18:20:01.556Z,13.30
2018-02-12T18:22:27.730Z,9.50
2018-02-12T18:24:54.140Z,9.40
2018-02-12T18:27:20.257Z,12.40
2018-02-12T18:29:46.223Z,10.67
2018-02-12T18:32:12.308Z,12.03
2018-02-12T18:34:38.239Z,13.77
2018-02-12T18:37:04.303Z,13.70
2018-02-12T18:39:30.289Z,17.17
2018-02-12T18:41:56.688Z,11.20
2018-02-12T18:44:22.698Z,7.63
2018-02-12T18:46:48.749Z,7.13
2018-02-12T18:49:14.802Z,15.67
2018-02-12T18:51:40.851Z,6.30
2018-02-12T18:54:06.968Z,9.90
2018-02-12T18:56:32.953Z,15.53
2018-02-12T18:58:59.045Z,12.07
2018-02-12T19:01:25.056Z,9.03
2018-02-12T19:03:51.069Z,12.90
2018-02-12T19:06:17.474Z,12.77
2018-02-12T19:08:43.525Z,9.40
2018-02-12T19:11:09.555Z,9.20
2018-02-12T19:13:35.520Z,7.13
2018-02-12T19:16:01.510Z,7.00
2018-02-12T19:18:27.540Z,9.00
2018-02-12T19:20:53.605Z,9.00
2018-02-12T19:23:20.046Z,8.80
2018-02-12T19:25:46.120Z,11.13
2018-02-12T19:28:12.119Z,8.40
2018-02-12T19:30:38.113Z,9.47
2018-02-12T19:33:04.130Z,9.43
2018-02-12T19:35:30.136Z,12.60
2018-02-12T19:37:56.180Z,11.00
2018-02-12T19:40:22.521Z,8.03
2018-02-12T19:42:48.508Z,9.23
2018-02-12T19:45:14.587Z,11.70
2018-02-12T19:47:40.633Z,15.57
2018-02-12T19:50:06.693Z,14.40
2018-02-12T19:52:33.093Z,12.97
2018-02-12T19:54:59.096Z,13.67
2018-02-12T19:57:25.170Z,17.17
2018-02-12T19:59:51.203Z,19.57
2018-02-12T20:02:17.238Z,13.33
2018-02-12T20:04:43.774Z,10.57
2018-02-12T20:07:09.724Z,11.67
2018-02-12T20:09:35.752Z,10.87
2018-02-12T20:12:01.825Z,10.47
2018-02-12T20:14:27.809Z,12.83
2018-02-12T20:16:53.833Z,17.23
2018-02-12T20:19:19.891Z,15.27
2018-02-12T20:21:46.218Z,16.00
2018-02-12T20:24:12.247Z,16.60
2018-02-12T20:26:38.252Z,12.90
2018-02-12T20:29:04.365Z,13.87
2018-02-12T20:31:30.361Z,14.10
2018-02-12T20:33:56.831Z,16.10
2018-02-12T20:36:22.896Z,13.10
2018-02-12T20:38:48.969Z,10.70
2018-02-12T20:41:14.993Z,12.53
2018-02-12T20:43:40.968Z,11.10
2018-02-12T20:46:06.989Z,14.03
2018-02-12T20:48:32.993Z,15.33
2018-02-12T20:50:59.045Z,17.63
2018-02-12T20:53:25.017Z,14.17
2018-02-12T20:55:51.381Z,16.03
2018-02-12T20:58:17.344Z,11.87
2018-02-12T21:00:43.292Z,10.70
2018-02-12T21:03:09.300Z,12.30
2018-02-12T21:05:35.304Z,12.10
2018-02-12T21:08:01.314Z,12.87
2018-02-12T21:10:27.297Z,13.33
2018-02-12T21:12:53.637Z,11.60
2018-02-12T21:15:19.666Z,10.90
2018-02-12T21:17:45.656Z,9.70
2018-02-12T21:20:11.692Z,9.70
2018-02-12T21:22:37.713Z,10.23
2018-02-12T21:25:03.697Z,10.30
2018-02-12T21:27:29.744Z,9.70
2018-02-12T21:29:55.741Z,8.67
2018-02-12T21:32:21.742Z,14.10
2018-02-12T21:34:47.720Z,11.77
2018-02-12T21:37:13.744Z,8.93
2018-02-12T21:39:39.730Z,14.97
2018-02-12T21:42:05.832Z,9.83
2018-02-12T21:44:31.861Z,10.83
2018-02-12T21:46:57.906Z,12.43
2018-02-12T21:49:24.006Z,9.47
2018-02-12T21:51:50.073Z,9.10
2018-02-12T21:54:16.071Z,9.10
2018-02-12T21:56:42.018Z,8.17
2018-02-12T21:59:07.994Z,12.13
2018-02-12T22:01:34.124Z,10.43
2018-02-12T22:04:00.205Z,8.53
2018-02-12T22:06:26.634Z,11.43
2018-02-12T22:08:52.648Z,14.03
2018-02-12T22:11:18.714Z,13.03
2018-02-12T22:13:44.713Z,15.23
2018-02-12T22:16:10.697Z,8.53
2018-02-12T22:18:37.042Z,8.80
2018-02-12T22:21:03.037Z,7.47
2018-02-12T22:23:29.132Z,8.43
2018-02-12T22:25:55.140Z,9.50
2018-02-12T22:28:21.130Z,11.30
2018-02-12T22:30:47.202Z,7.50
2018-02-12T22:33:13.217Z,9.93
2018-02-12T22:35:39.190Z,14.80
2018-02-12T22:38:05.186Z,7.77
2018-02-12T22:40:31.553Z,8.90
2018-02-12T22:42:57.522Z,9.07
2018-02-12T22:45:23.533Z,7.20
2018-02-12T22:47:49.565Z,9.57
2018-02-12T22:50:15.562Z,6.77
2018-02-12T22:52:41.565Z,13.20
2018-02-12T22:55:07.580Z,8.53
2018-02-12T22:57:33.677Z,13.83
2018-02-12T22:59:59.682Z,9.03
2018-02-12T23:02:26.112Z,9.20
2018-02-12T23:04:52.145Z,8.47
2018-02-12T23:07:18.137Z,9.83
2018-02-12T23:09:44.143Z,11.73
2018-02-12T23:12:10.401Z,9.30
2018-02-12T23:14:36.349Z,9.60
2018-02-12T23:19:59.250Z,8.53
2018-02-12T23:22:25.193Z,11.40
2018-02-12T23:24:51.522Z,10.80
2018-02-12T23:27:17.509Z,9.20
2018-02-12T23:29:43.509Z,8.07
2018-02-12T23:32:09.528Z,10.43
2018-02-12T23:34:35.593Z,9.23
2018-02-12T23:37:01.620Z,7.43
2018-02-12T23:39:27.631Z,9.13
2018-02-12T23:41:53.992Z,7.10
2018-02-12T23:44:20.148Z,8.60
2018-02-12T23:46:46.153Z,11.30
2018-02-12T23:49:12.245Z,13.83
2018-02-12T23:51:38.284Z,11.37
2018-02-12T23:54:04.293Z,19.97
2018-02-12T23:56:30.297Z,12.07
2018-02-12T23:58:56.323Z,11.00
